Time;durP1;ratioP1;P1;durP2;ratioP2;P2;SDS_P1;SDS_P2;PMS_P1;PMS_P2;Temp;Humidity;BMP_temperature;BMP_pressure;BME280_temperature;BME280_humidity;BME280_pressure;Samples;Min_cycle;Max_cycle;Signal;HPM_P1;HPM_P2
2023/06/23 00:00:14;;;;;;;9.33;5.40;;;;;;;23.35;70.09;100532.18;5238801;55;1138970;-72
2023/06/23 00:05:20;;;;;;;6.78;5.37;;;;;;;23.33;70.27;100519.40;5218475;55;1139005;-70
2023/06/23 00:10:26;;;;;;;6.83;4.87;;;;;;;23.28;70.07;100515.95;5218168;55;1139049;-68
2023/06/23 00:15:31;;;;;;;9.08;5.40;;;;;;;23.21;69.70;100503.48;5239191;55;1138909;-73
2023/06/23 00:20:37;;;;;;;5.70;5.10;;;;;;;23.12;69.55;100512.24;5130752;56;1139124;-79
2023/06/23 00:25:42;;;;;;;9.13;5.20;;;;;;;23.03;69.75;100511.59;5184053;55;1138924;-73
2023/06/23 00:30:49;;;;;;;6.73;5.33;;;;;;;22.88;70.39;100493.36;5239580;55;1139246;-75
2023/06/23 00:35:56;;;;;;;7.28;5.00;;;;;;;22.77;71.05;100485.81;5218982;55;1138998;-75
2023/06/23 00:41:05;;;;;;;6.37;4.90;;;;;;;22.61;71.82;100478.84;5218461;55;1138803;-76
2023/06/23 00:46:19;;;;;;;8.50;4.92;;;;;;;22.50;72.23;100479.91;5239562;55;1138898;-76
2023/06/23 00:51:25;;;;;;;5.37;4.78;;;;;;;22.46;72.35;100488.39;5218713;55;1139143;-74
2023/06/23 00:56:32;;;;;;;8.63;4.70;;;;;;;22.52;72.21;100514.25;5218197;55;1139010;-74
2023/06/23 01:01:38;;;;;;;5.12;4.62;;;;;;;22.59;72.06;100520.02;5239352;55;1138890;-70
2023/06/23 01:06:59;;;;;;;6.35;4.62;;;;;;;22.67;72.00;100539.23;5217186;55;1139023;-76
2023/06/23 01:12:31;;;;;;;4.87;4.40;;;;;;;22.32;74.89;100617.83;5219200;55;1138756;-69
2023/06/23 01:17:46;;;;;;;6.47;4.22;;;;;;;22.32;74.89;100617.83;5188514;54;1138847;-77
2023/06/23 01:23:16;;;;;;;11.12;5.47;;;;;;;21.74;78.80;100681.09;5238216;54;1138853;-71
2023/06/23 01:28:56;;;;;;;9.15;5.50;;;;;;;20.81;84.73;100698.17;5198521;55;1141106;-70
2023/06/23 01:34:08;;;;;;;8.70;6.10;;;;;;;20.81;84.73;100698.17;5216932;54;1138853;-66
2023/06/23 01:39:19;;;;;;;13.08;5.80;;;;;;;20.96;88.00;100672.16;5241133;55;1138661;-68
2023/06/23 01:44:26;;;;;;;14.50;6.83;;;;;;;21.11;88.26;100627.81;5230185;55;1140713;-74
2023/06/23 01:49:40;;;;;;;13.57;6.30;;;;;;;20.94;90.00;100611.01;5230370;55;1140830;-77
2023/06/23 01:54:43;;;;;;;10.14;5.82;;;;;;;20.86;91.59;100592.28;5250196;55;1148708;-72
2023/06/23 01:59:50;;;;;;;10.65;5.75;;;;;;;20.92;92.31;100571.91;5227125;55;1140945;-73
2023/06/23 02:04:58;;;;;;;10.25;6.15;;;;;;;20.92;92.97;100575.43;5142775;54;1141012;-73
2023/06/23 02:10:06;;;;;;;12.00;7.30;;;;;;;20.92;93.76;100577.28;5162727;55;1140774;-73
2023/06/23 02:15:14;;;;;;;10.05;6.58;;;;;;;20.98;95.02;100574.67;5202068;54;1141037;-75
2023/06/23 02:20:23;;;;;;;8.20;6.47;;;;;;;20.98;94.87;100564.42;5229874;55;1141176;-76
2023/06/23 02:25:30;;;;;;;12.13;7.40;;;;;;;20.96;95.64;100559.23;5231060;54;1138903;-73
2023/06/23 02:30:40;;;;;;;13.38;7.22;;;;;;;20.96;95.79;100546.30;5251415;55;1140924;-72
2023/06/23 02:35:46;;;;;;;13.05;6.80;;;;;;;20.84;96.00;100543.23;5201472;55;1141014;-72
2023/06/23 02:40:54;;;;;;;11.37;7.17;;;;;;;20.57;95.82;100559.99;5144701;55;1141014;-70
2023/06/23 02:46:02;;;;;;;14.28;7.85;;;;;;;20.38;97.51;100558.64;5165022;55;1141010;-77
2023/06/23 02:51:12;;;;;;;10.18;6.72;;;;;;;20.16;98.95;100558.98;5144818;55;1140920;-75
2023/06/23 02:56:21;;;;;;;9.48;7.03;;;;;;;20.01;100.00;100558.09;5144861;55;1141070;-72
2023/06/23 03:01:31;;;;;;;13.50;7.62;;;;;;;19.89;100.00;100575.09;5144759;55;1141073;-71
2023/06/23 03:06:38;;;;;;;10.38;7.08;;;;;;;19.99;100.00;100569.52;5164159;56;1143089;-75
2023/06/23 03:11:44;;;;;;;11.85;7.72;;;;;;;19.87;100.00;100583.83;5149772;54;1142985;-72
2023/06/23 03:16:59;;;;;;;9.70;7.17;;;;;;;19.83;100.00;100582.54;5155648;55;1143292;-69
2023/06/23 03:22:17;;;;;;;11.43;8.13;;;;;;;19.73;100.00;100582.41;5164885;55;1140918;-75
2023/06/23 03:27:26;;;;;;;13.35;8.25;;;;;;;19.70;100.00;100607.78;5143731;55;1143078;-68
2023/06/23 03:32:39;;;;;;;10.70;7.72;;;;;;;19.54;100.00;100719.20;5169217;55;1143177;-71
2023/06/23 03:37:55;;;;;;;12.80;8.48;;;;;;;19.18;100.00;100770.52;5231150;55;1143083;-68
2023/06/23 03:43:14;;;;;;;13.58;8.55;;;;;;;19.05;100.00;100688.42;5230848;55;1143302;-73
2023/06/23 03:48:21;;;;;;;15.43;8.85;;;;;;;19.23;100.00;100507.23;5217858;55;1143380;-75
2023/06/23 03:53:29;;;;;;;11.00;8.07;;;;;;;19.38;100.00;100503.30;5217605;55;1142967;-74
2023/06/23 03:58:36;;;;;;;10.95;8.08;;;;;;;19.39;100.00;100458.03;5238711;55;1142909;-72
2023/06/23 04:03:44;;;;;;;16.40;7.97;;;;;;;19.25;100.00;100387.19;5218371;55;1142934;-71
2023/06/23 04:08:53;;;;;;;12.65;7.10;;;;;;;19.05;100.00;100349.81;5217953;55;1143042;-75
2023/06/23 04:14:00;;;;;;;12.53;6.65;;;;;;;18.85;100.00;100318.61;5238896;55;1142959;-71
2023/06/23 04:19:11;;;;;;;8.75;6.45;;;;;;;18.75;100.00;100288.55;5218207;55;1142724;-70
2023/06/23 04:24:19;;;;;;;8.08;6.67;;;;;;;18.60;100.00;100234.39;5217902;54;1141133;-74
2023/06/23 04:29:27;;;;;;;11.60;6.85;;;;;;;18.48;100.00;100231.77;5218630;55;1141091;-72
2023/06/23 04:34:32;;;;;;;8.53;5.55;;;;;;;18.44;100.00;100317.48;5242924;55;1143221;-71
2023/06/23 04:40:23;;;;;;;8.15;5.37;;;;;;;18.64;100.00;100335.30;5231261;55;1140990;-73
2023/06/23 04:45:31;;;;;;;5.70;4.50;;;;;;;18.64;100.00;100352.72;5231134;55;1141005;-74
2023/06/23 04:50:40;;;;;;;11.93;5.17;;;;;;;18.63;100.00;100367.15;5231476;55;1141057;-78
2023/06/23 04:55:50;;;;;;;8.28;5.03;;;;;;;18.65;100.00;100353.05;5252946;55;1142998;-74
2023/06/23 05:00:58;;;;;;;8.08;5.10;;;;;;;18.72;100.00;100331.25;5224779;55;1140909;-69
2023/06/23 05:06:07;;;;;;;7.40;5.92;;;;;;;18.74;100.00;100297.59;5230547;55;1140931;-69
2023/06/23 05:11:14;;;;;;;9.80;5.75;;;;;;;18.81;100.00;100354.80;5252193;55;1140918;-69
2023/06/23 05:16:21;;;;;;;5.75;5.15;;;;;;;18.97;100.00;100362.25;5231635;55;1140910;-71
2023/06/23 05:21:29;;;;;;;9.13;6.42;;;;;;;18.96;100.00;100366.44;5231733;55;1141178;-74
2023/06/23 05:26:35;;;;;;;12.84;5.70;;;;;;;18.96;100.00;100391.40;5252034;55;1141232;-76
2023/06/23 05:31:43;;;;;;;10.40;6.03;;;;;;;19.00;100.00;100385.69;5231348;55;1142848;-72
2023/06/23 05:36:51;;;;;;;9.63;6.03;;;;;;;19.00;100.00;100359.72;5232724;55;1143074;-70
2023/06/23 05:41:57;;;;;;;11.60;6.25;;;;;;;18.99;100.00;100358.05;5256496;55;1140741;-70
2023/06/23 05:47:05;;;;;;;11.50;5.78;;;;;;;18.92;100.00;100351.24;5235094;55;1142995;-75
2023/06/23 05:52:15;;;;;;;18.98;7.33;;;;;;;18.79;100.00;100353.64;5233748;55;1143047;-70
2023/06/23 05:57:30;;;;;;;12.70;6.40;;;;;;;18.73;100.00;100391.88;5217127;55;1142942;-74
2023/06/23 06:02:39;;;;;;;16.12;5.85;;;;;;;18.73;100.00;100391.88;5217845;54;1142895;-75
2023/06/23 06:07:46;;;;;;;10.13;6.53;;;;;;;18.86;100.00;100419.44;5137034;55;1263561;-74
2023/06/23 06:12:54;;;;;;;7.65;6.33;;;;;;;18.93;100.00;100424.44;5138475;55;1143041;-68
2023/06/23 06:18:05;;;;;;;7.80;6.33;;;;;;;19.04;100.00;100465.59;5169486;55;1140881;-72
2023/06/23 06:23:13;;;;;;;12.37;6.45;;;;;;;19.08;100.00;100451.34;5138177;56;1141083;-75
2023/06/23 06:28:20;;;;;;;12.07;5.92;;;;;;;19.16;100.00;100477.59;5146910;55;1142854;-78
2023/06/23 06:33:31;;;;;;;10.15;6.00;;;;;;;19.19;100.00;100460.31;5171266;55;1143425;-73
2023/06/23 06:38:40;;;;;;;10.58;6.58;;;;;;;19.14;100.00;100484.13;5227766;54;1143202;-77
2023/06/23 06:43:47;;;;;;;14.85;6.17;;;;;;;19.14;100.00;100487.64;5232998;55;1143215;-74
2023/06/23 06:48:57;;;;;;;10.80;5.25;;;;;;;19.00;100.00;100468.28;5217974;55;1143083;-75
2023/06/23 06:54:03;;;;;;;8.10;5.73;;;;;;;18.85;100.00;100461.48;5194622;55;1147112;-74
2023/06/23 06:59:09;;;;;;;9.18;6.08;;;;;;;18.82;100.00;100444.91;5190866;55;1140851;-74
2023/06/23 07:04:16;;;;;;;8.55;6.55;;;;;;;18.82;100.00;100444.91;5218998;55;1140775;-71
2023/06/23 07:09:22;;;;;;;9.60;6.47;;;;;;;18.60;100.00;100448.69;5218896;55;1141386;-76
2023/06/23 07:14:27;;;;;;;7.20;5.35;;;;;;;18.53;100.00;100451.67;5203918;55;1141027;-75
2023/06/23 07:19:33;;;;;;;8.25;4.78;;;;;;;18.51;100.00;100446.16;5131079;55;1141168;-75
2023/06/23 07:24:39;;;;;;;7.37;4.90;;;;;;;18.45;100.00;100445.02;5131808;55;1141198;-70
2023/06/23 07:29:45;;;;;;;6.58;4.78;;;;;;;18.37;100.00;100424.10;5151492;55;1140685;-70
2023/06/23 07:34:50;;;;;;;6.08;5.40;;;;;;;18.40;100.00;100421.92;5132046;55;1140824;-75
2023/06/23 07:39:56;;;;;;;7.40;5.17;;;;;;;18.47;100.00;100420.24;5134333;55;1140739;-70
2023/06/23 07:45:02;;;;;;;5.37;4.53;;;;;;;18.55;100.00;100428.23;5162923;55;1141066;-73
2023/06/23 07:50:08;;;;;;;5.60;4.97;;;;;;;18.61;100.00;100439.64;5156384;55;1140773;-77
2023/06/23 07:55:20;;;;;;;7.87;5.75;;;;;;;18.65;100.00;100439.27;5183257;55;1140921;-71
2023/06/23 08:00:27;;;;;;;6.25;5.60;;;;;;;18.72;100.00;100434.91;5189872;54;1141041;-71
2023/06/23 08:05:32;;;;;;;6.92;4.50;;;;;;;18.77;100.00;100425.35;5209209;55;1141042;-69
2023/06/23 08:10:38;;;;;;;7.60;5.35;;;;;;;18.81;100.00;100415.09;5219902;55;1140834;-74
2023/06/23 08:15:44;;;;;;;7.00;5.70;;;;;;;18.82;100.00;100408.73;5227287;54;1140826;-78
2023/06/23 08:20:50;;;;;;;6.85;5.67;;;;;;;18.81;100.00;100410.57;5250857;55;1140873;-69
2023/06/23 08:25:55;;;;;;;6.00;5.40;;;;;;;18.77;100.00;100425.35;5230442;55;1141009;-75
2023/06/23 08:31:01;;;;;;;10.93;5.87;;;;;;;18.70;100.00;100432.40;5230349;55;1140853;-76
2023/06/23 08:36:07;;;;;;;6.55;4.65;;;;;;;18.67;100.00;100431.40;5243429;54;1143082;-80
2023/06/23 08:41:13;;;;;;;7.12;5.45;;;;;;;18.68;100.00;100429.55;5229774;55;1140692;-80
2023/06/23 08:46:22;;;;;;;5.95;5.17;;;;;;;18.71;100.00;100431.89;5152947;54;1141135;-67
2023/06/23 08:51:29;;;;;;;5.97;5.22;;;;;;;18.72;100.00;100431.73;5014478;56;1140833;-70
2023/06/23 08:56:34;;;;;;;6.75;5.70;;;;;;;18.77;100.00;100436.57;5047511;57;1141156;-76
2023/06/23 09:01:40;;;;;;;6.75;5.37;;;;;;;18.77;100.00;100449.47;5027463;57;1141027;-71
2023/06/23 09:06:46;;;;;;;6.53;6.03;;;;;;;18.79;100.00;100458.14;5027239;57;1140834;-75
2023/06/23 09:11:52;;;;;;;9.00;6.00;;;;;;;18.80;100.00;100467.85;5006992;56;1140937;-68
2023/06/23 09:16:58;;;;;;;10.63;6.67;;;;;;;18.87;100.00;100482.75;5019474;56;1140934;-74
2023/06/23 09:22:04;;;;;;;7.03;6.30;;;;;;;18.89;100.00;100482.07;5122953;56;1143179;-69
2023/06/23 09:27:10;;;;;;;8.93;7.10;;;;;;;18.92;100.00;100495.13;5143997;56;1140877;-69
2023/06/23 09:32:20;;;;;;;6.83;6.12;;;;;;;18.94;100.00;100505.98;5123733;56;1140782;-70
2023/06/23 09:37:26;;;;;;;8.85;7.40;;;;;;;19.02;100.00;100506.97;5121331;56;1140899;-73
2023/06/23 09:42:33;;;;;;;10.00;8.08;;;;;;;19.11;100.00;100496.53;5083326;56;1140620;-78
2023/06/23 09:47:40;;;;;;;8.10;7.30;;;;;;;19.20;100.00;100499.53;5046518;56;1143234;-68
2023/06/23 09:52:45;;;;;;;10.50;7.20;;;;;;;19.30;100.00;100488.06;5078992;55;1140712;-70
2023/06/23 09:57:51;;;;;;;7.75;7.05;;;;;;;19.42;100.00;100487.98;5118680;55;1143255;-76
2023/06/23 10:03:02;;;;;;;9.00;7.47;;;;;;;19.50;100.00;100483.97;5139181;56;1140840;-75
2023/06/23 10:08:12;;;;;;;9.90;8.90;;;;;;;19.58;100.00;100491.95;5118811;56;1140652;-68
2023/06/23 10:13:18;;;;;;;9.15;7.90;;;;;;;19.69;100.00;100510.84;5118700;56;1140591;-76
2023/06/23 10:18:24;;;;;;;10.00;7.87;;;;;;;19.75;100.00;100506.09;5119185;56;1140959;-69
2023/06/23 10:23:31;;;;;;;9.98;7.85;;;;;;;19.79;100.00;100514.63;5136868;56;1143051;-71
2023/06/23 10:28:39;;;;;;;9.15;7.55;;;;;;;19.82;100.00;100525.84;5106441;56;1140981;-69
2023/06/23 10:33:47;;;;;;;11.57;9.40;;;;;;;19.89;100.00;100536.69;5106404;56;1140805;-74
2023/06/23 10:38:55;;;;;;;11.68;9.68;;;;;;;19.99;100.00;100539.48;5118101;56;1142835;-70
2023/06/23 10:44:04;;;;;;;12.63;9.28;;;;;;;20.11;100.00;100552.47;5090198;56;1142923;-76
2023/06/23 10:49:10;;;;;;;14.47;10.25;;;;;;;20.21;100.00;100560.60;5087388;56;1143427;-79
2023/06/23 10:54:29;;;;;;;10.85;9.30;;;;;;;20.31;100.00;100572.46;5158893;55;1145309;-76
2023/06/23 10:59:34;;;;;;;14.98;9.60;;;;;;;20.41;100.00;100573.06;5174604;55;1142907;-72
2023/06/23 11:04:52;;;;;;;11.00;9.75;;;;;;;20.51;100.00;100566.09;5150720;55;1142999;-75
2023/06/23 11:10:03;;;;;;;15.85;10.85;;;;;;;20.63;100.00;100576.71;5129031;56;1143264;-79
2023/06/23 11:15:16;;;;;;;14.73;11.33;;;;;;;20.78;100.00;100583.48;5156004;55;1145005;-70
2023/06/23 11:20:31;;;;;;;16.90;12.18;;;;;;;20.91;100.00;100583.17;5195512;55;1145115;-76
2023/06/23 11:25:44;;;;;;;12.57;10.40;;;;;;;20.93;100.00;100585.67;5195849;55;1144996;-80
2023/06/23 11:31:24;;;;;;;11.93;10.55;;;;;;;20.98;100.00;100586.77;5169225;55;1144835;-69
2023/06/23 11:36:30;;;;;;;16.37;11.10;;;;;;;21.08;100.00;100600.77;5184816;54;1145032;-73
2023/06/23 11:41:35;;;;;;;15.65;11.15;;;;;;;21.15;100.00;100605.42;5195576;54;1145300;-78
2023/06/23 11:46:41;;;;;;;12.25;10.65;;;;;;;21.21;100.00;100609.59;5195216;54;1144833;-75
2023/06/23 11:51:47;;;;;;;14.98;11.18;;;;;;;21.23;100.00;100604.86;5205517;54;1144989;-79
2023/06/23 11:56:54;;;;;;;14.85;11.70;;;;;;;21.18;100.00;100606.40;5203520;54;1144875;-72
2023/06/23 12:02:01;;;;;;;12.95;10.45;;;;;;;21.22;100.00;100601.02;5209969;54;1145309;-70
2023/06/23 12:07:10;;;;;;;13.53;10.93;;;;;;;21.35;100.00;100615.98;5194147;54;1145154;-78
2023/06/23 12:12:16;;;;;;;15.98;11.15;;;;;;;21.47;100.00;100613.14;5211264;54;1145133;-78
2023/06/23 12:17:23;;;;;;;12.47;9.78;;;;;;;21.55;100.00;100608.98;5232217;54;1144944;-76
2023/06/23 12:22:37;;;;;;;14.98;10.75;;;;;;;21.71;100.00;100602.04;5222192;54;1143086;-78
2023/06/23 12:27:52;;;;;;;12.30;9.83;;;;;;;21.85;100.00;100602.19;5145655;54;1144980;-77
2023/06/23 12:32:57;;;;;;;10.10;8.96;;;;;;;;;;5180025;55;1143400;-76
2023/06/23 12:38:01;;;;;;;13.58;9.90;;;;;;;;;;5240976;54;819737;-71
2023/06/23 12:43:07;;;;;;;9.18;8.35;;;;;;;21.94;100.00;100597.02;5231871;54;817932;-75
2023/06/23 12:48:13;;;;;;;9.08;8.23;;;;;;;21.93;100.00;100594.84;5134021;54;1139106;-77
2023/06/23 12:53:19;;;;;;;9.55;7.87;;;;;;;21.94;100.00;100590.29;5206677;55;1141117;-70
2023/06/23 12:58:24;;;;;;;10.23;8.98;;;;;;;21.95;100.00;100587.41;5124492;55;1141167;-72
2023/06/23 13:03:30;;;;;;;11.80;8.38;;;;;;;22.04;100.00;100597.56;5058363;55;1142832;-73
2023/06/23 13:08:36;;;;;;;13.32;7.45;;;;;;;22.11;100.00;100591.75;5037290;56;1142814;-77
2023/06/23 13:13:42;;;;;;;10.23;7.75;;;;;;;22.15;100.00;100599.77;5042806;55;1143395;-73
2023/06/23 13:18:47;;;;;;;12.68;8.50;;;;;;;22.17;100.00;100604.94;5112015;55;1142751;-77
2023/06/23 13:23:55;;;;;;;16.65;8.68;;;;;;;22.09;100.00;100609.95;5112148;55;1197821;-78
2023/06/23 13:29:02;;;;;;;11.33;7.90;;;;;;;22.06;100.00;100621.94;5018894;56;1143101;-69
2023/06/23 13:34:07;;;;;;;8.80;7.70;;;;;;;22.05;100.00;100622.97;5088136;55;1143023;-76
2023/06/23 13:39:13;;;;;;;7.97;7.10;;;;;;;22.10;100.00;100622.41;5129888;55;1141111;-77
2023/06/23 13:44:18;;;;;;;8.75;7.83;;;;;;;22.11;100.00;100621.38;5105520;55;1140984;-77
2023/06/23 13:49:25;;;;;;;11.08;9.20;;;;;;;22.04;100.00;100613.22;5110016;55;1141077;-75
2023/06/23 13:54:31;;;;;;;24.02;14.10;;;;;;;21.98;100.00;100614.48;5111892;55;1143234;-78
2023/06/23 13:59:36;;;;;;;53.80;42.00;;;;;;;22.02;100.00;100611.73;5106037;55;1145042;-78
2023/06/23 14:04:42;;;;;;;10.38;8.75;;;;;;;22.09;100.00;100603.22;5094567;57;1145045;-68
2023/06/23 14:09:48;;;;;;;9.50;7.28;;;;;;;22.10;100.00;100596.81;5094638;56;1143040;-76
2023/06/23 14:14:53;;;;;;;11.35;7.97;;;;;;;22.07;100.00;100607.97;5089789;55;1141099;-71
2023/06/23 14:19:59;;;;;;;12.07;8.23;;;;;;;22.05;100.00;100611.36;5037830;55;1143520;-74
2023/06/23 14:25:05;;;;;;;12.23;8.20;;;;;;;21.99;100.00;100614.32;5011592;56;1143407;-81
2023/06/23 14:30:12;;;;;;;13.97;9.37;;;;;;;21.95;100.00;100613.50;5093241;56;1142831;-70
2023/06/23 14:35:19;;;;;;;8.28;7.42;;;;;;;21.98;100.00;100614.48;5094012;57;1142789;-74
2023/06/23 14:40:24;;;;;;;9.23;7.25;;;;;;;22.04;100.00;100615.91;5069714;57;1140900;-73
2023/06/23 14:45:40;;;;;;;11.83;10.00;;;;;;;22.08;100.00;100620.41;5006834;57;1140866;-75
2023/06/23 14:50:45;;;;;;;13.30;10.34;;;;;;;22.10;100.00;100629.97;5024916;56;1144906;-71
2023/06/23 14:55:51;;;;;;;16.05;10.32;;;;;;;22.11;100.00;100637.54;4987042;56;1144967;-78
2023/06/23 15:00:57;;;;;;;11.68;8.60;;;;;;;22.16;100.00;100644.52;4971025;56;1145024;-81
2023/06/23 15:06:04;;;;;;;12.85;8.63;;;;;;;22.21;100.00;100642.60;5021166;56;1142822;-79
2023/06/23 15:11:10;;;;;;;11.45;8.68;;;;;;;22.25;100.00;100646.08;5031754;55;1142923;-76
2023/06/23 15:16:15;;;;;;;9.00;8.20;;;;;;;22.24;100.00;100665.13;5131153;56;1143116;-74
2023/06/23 15:21:22;;;;;;;11.48;7.38;;;;;;;22.22;100.00;100659.93;5131292;55;1141104;-73
2023/06/23 15:26:27;;;;;;;14.78;9.45;;;;;;;22.20;100.00;100671.92;5124455;56;1142760;-74
2023/06/23 15:31:33;;;;;;;42.95;28.25;;;;;;;22.20;100.00;100664.67;5111700;56;1143043;-77
2023/06/23 15:36:39;;;;;;;32.60;23.43;;;;;;;22.25;100.00;100664.11;5129356;56;1145043;-75
2023/06/23 15:41:44;;;;;;;12.43;9.73;;;;;;;22.25;100.00;100673.53;5132603;55;1144776;-72
2023/06/23 15:46:51;;;;;;;9.30;8.13;;;;;;;22.24;100.00;100666.48;5102163;56;1143189;-73
2023/06/23 15:51:57;;;;;;;12.46;8.38;;;;;;;22.18;100.00;100669.41;5124602;55;1140731;-74
2023/06/23 15:57:03;;;;;;;12.07;9.95;;;;;;;22.20;100.00;100680.00;5102239;55;1143413;-71
2023/06/23 16:02:09;;;;;;;13.28;10.80;;;;;;;22.18;100.00;100678.84;5049901;55;1142928;-72
2023/06/23 16:07:15;;;;;;;15.13;9.93;;;;;;;22.13;100.00;100698.80;5079327;55;1145188;-81
2023/06/23 16:12:20;;;;;;;14.23;8.53;;;;;;;22.12;100.00;100701.68;5097702;56;1142951;-71
2023/06/23 16:17:26;;;;;;;21.27;17.77;;;;;;;22.07;100.00;100706.28;5109631;56;1143125;-76
2023/06/23 16:22:30;;;;;;;17.23;10.10;;;;;;;;;;5107548;56;1144997;-77
2023/06/23 16:27:36;;;;;;;29.95;15.98;;;;;;;22.00;100.00;100717.47;5157524;56;822102;-78
2023/06/23 16:32:41;;;;;;;36.48;23.30;;;;;;;22.00;100.00;100726.39;5105433;56;1142786;-80
2023/06/23 16:37:47;;;;;;;14.65;11.57;;;;;;;21.98;100.00;100727.08;5098017;56;1145215;-72
2023/06/23 16:42:54;;;;;;;20.17;12.85;;;;;;;21.88;100.00;100730.55;5124153;56;1145032;-73
2023/06/23 16:48:00;;;;;;;15.85;10.85;;;;;;;21.88;100.00;100729.72;5163752;54;1144976;-73
2023/06/23 16:53:09;;;;;;;29.00;14.30;;;;;;;21.86;100.00;100721.83;5145984;55;1145120;-76
2023/06/23 16:58:13;;;;;;;34.35;19.50;;;;;;;21.81;100.00;100731.00;5154705;55;1144956;-76
2023/06/23 17:03:19;;;;;;;24.47;16.75;;;;;;;21.78;100.00;100730.02;5124243;55;1145620;-76
2023/06/23 17:08:25;;;;;;;14.70;11.25;;;;;;;21.82;100.00;100727.80;5160201;56;1145398;-78
2023/06/23 17:13:30;;;;;;;17.57;11.83;;;;;;;21.83;100.00;100722.73;5158011;56;1145269;-70
2023/06/23 17:18:36;;;;;;;19.87;13.20;;;;;;;21.85;100.00;100724.19;5133186;55;1144798;-72
2023/06/23 17:23:42;;;;;;;20.80;12.20;;;;;;;21.90;100.00;100726.33;5118319;56;1145082;-70
2023/06/23 17:28:47;;;;;;;30.52;17.65;;;;;;;21.88;100.00;100725.68;5115391;56;1145147;-76
2023/06/23 17:33:53;;;;;;;42.88;21.50;;;;;;;21.72;100.00;100728.89;5133049;56;1145213;-73
2023/06/23 17:38:59;;;;;;;48.35;26.60;;;;;;;21.58;100.00;100722.17;5127613;55;1145225;-74
2023/06/23 17:44:05;;;;;;;22.40;16.20;;;;;;;21.48;100.00;100731.04;5067609;54;1145140;-78
2023/06/23 17:49:11;;;;;;;19.42;12.50;;;;;;;21.46;100.00;100731.73;5083631;55;1144863;-68
2023/06/23 17:54:17;;;;;;;25.33;12.33;;;;;;;21.45;100.00;100738.13;5063909;55;1145320;-69
2023/06/23 17:59:22;;;;;;;15.15;11.70;;;;;;;21.46;100.00;100741.98;5118430;54;1145316;-77
2023/06/23 18:04:29;;;;;;;19.12;12.63;;;;;;;21.47;100.00;100739.62;5092165;55;1145513;-73
2023/06/23 18:09:34;;;;;;;18.05;12.78;;;;;;;21.51;100.00;100737.41;5163376;54;1145210;-72
2023/06/23 18:14:40;;;;;;;15.78;12.30;;;;;;;21.51;100.00;100749.52;5162236;54;1144970;-79
2023/06/23 18:19:47;;;;;;;16.85;13.30;;;;;;;21.53;100.00;100756.90;5150819;55;1145202;-72
2023/06/23 18:24:52;;;;;;;23.65;11.68;;;;;;;21.52;100.00;100767.34;5130061;56;1145133;-71
2023/06/23 18:29:58;;;;;;;21.93;14.38;;;;;;;21.47;100.00;100776.45;5137023;55;1145189;-74
2023/06/23 18:35:04;;;;;;;23.92;15.08;;;;;;;21.35;100.00;100778.25;5172547;55;1145046;-73
2023/06/23 18:40:12;;;;;;;21.05;14.58;;;;;;;21.36;100.00;100767.82;5218746;55;1144939;-75
2023/06/23 18:45:20;;;;;;;17.77;14.10;;;;;;;21.32;100.00;100766.51;5198184;55;1145028;-73
2023/06/23 18:50:25;;;;;;;18.70;12.93;;;;;;;21.23;100.00;100767.62;5198072;55;1145226;-73
2023/06/23 18:55:31;;;;;;;17.87;12.50;;;;;;;21.19;100.00;100776.19;5197903;55;1145018;-74
2023/06/23 19:00:37;;;;;;;16.30;10.98;;;;;;;21.17;100.00;100765.61;5178568;55;1145341;-70
2023/06/23 19:05:42;;;;;;;14.38;11.93;;;;;;;21.17;100.00;100765.61;5107078;56;1145119;-69
2023/06/23 19:10:48;;;;;;;14.33;11.55;;;;;;;21.19;100.00;100773.02;5122385;56;1145258;-77
2023/06/23 19:15:54;;;;;;;15.65;11.28;;;;;;;21.15;100.00;100766.30;5149038;55;1145018;-74
2023/06/23 19:21:00;;;;;;;13.22;10.93;;;;;;;21.02;100.00;100783.55;5134804;55;1145037;-78
2023/06/23 19:26:06;;;;;;;11.70;8.64;;;;;;;20.94;100.00;100796.54;5160939;56;1145279;-75
2023/06/23 19:31:11;;;;;;;11.60;9.05;;;;;;;20.91;100.00;100809.53;5112029;55;1142933;-70
2023/06/23 19:36:17;;;;;;;13.50;9.08;;;;;;;20.94;100.00;100832.00;5100104;56;1142900;-71
2023/06/23 19:41:23;;;;;;;10.55;8.70;;;;;;;20.90;100.00;100838.77;5076365;56;1143147;-75
2023/06/23 19:46:29;;;;;;;12.05;8.85;;;;;;;20.87;100.00;100855.26;5018633;56;1142957;-74
2023/06/23 19:51:36;;;;;;;13.15;9.05;;;;;;;20.88;100.00;100867.69;5051358;57;1143335;-69
2023/06/23 19:56:42;;;;;;;9.70;8.63;;;;;;;20.87;100.00;100856.60;4932418;58;1143237;-76
2023/06/23 20:01:48;;;;;;;15.83;11.97;;;;;;;20.95;100.00;100868.13;4999369;56;1140995;-77
2023/06/23 20:06:53;;;;;;;12.28;10.15;;;;;;;20.95;100.00;100873.50;5045999;57;1145021;-68
2023/06/23 20:11:59;;;;;;;23.20;16.65;;;;;;;20.89;100.00;100878.77;4981829;57;1145218;-76
2023/06/23 20:17:05;;;;;;;16.70;13.83;;;;;;;20.79;100.00;100882.17;5091543;56;1144980;-78
2023/06/23 20:22:11;;;;;;;12.80;9.35;;;;;;;20.69;100.00;100896.68;5117170;56;1144895;-77
2023/06/23 20:27:18;;;;;;;11.90;8.00;;;;;;;20.61;100.00;100891.36;5043552;56;1143008;-78
2023/06/23 20:32:24;;;;;;;11.93;6.60;;;;;;;20.58;100.00;100898.92;5000734;56;1142856;-74
2023/06/23 20:37:29;;;;;;;6.53;5.93;;;;;;;20.56;100.00;100903.63;4970759;55;1143188;-77
2023/06/23 20:42:35;;;;;;;8.25;5.53;;;;;;;20.60;100.00;100906.31;5003649;56;1140786;-74
2023/06/23 20:47:41;;;;;;;10.75;5.00;;;;;;;20.58;100.00;100902.95;4954850;55;1140762;-70
2023/06/23 20:52:46;;;;;;;5.33;4.10;;;;;;;20.55;100.00;100914.05;4996773;56;1142955;-71
2023/06/23 20:57:52;;;;;;;6.65;3.98;;;;;;;20.51;100.00;100906.83;5022928;56;1140977;-76
2023/06/23 21:02:57;;;;;;;9.33;4.35;;;;;;;20.49;100.00;100910.70;4970206;57;1140819;-77
2023/06/23 21:08:03;;;;;;;5.83;4.42;;;;;;;20.49;100.00;100917.41;4939490;57;1140894;-74
2023/06/23 21:13:09;;;;;;;7.53;3.72;;;;;;;20.43;100.00;100921.66;5040182;57;1140819;-76
2023/06/23 21:18:15;;;;;;;5.67;4.03;;;;;;;20.29;100.00;100915.63;5046025;57;1140629;-75
2023/06/23 21:23:20;;;;;;;8.27;4.40;;;;;;;20.06;100.00;100918.18;5042512;56;1140911;-72
2023/06/23 21:28:26;;;;;;;8.10;4.17;;;;;;;19.91;100.00;100925.25;5046529;56;1140639;-76
2023/06/23 21:33:32;;;;;;;10.85;4.35;;;;;;;19.86;100.00;100928.44;5027562;56;1140975;-75
2023/06/23 21:38:37;;;;;;;4.08;3.70;;;;;;;19.87;100.00;100935.48;5079264;55;1142932;-74
2023/06/23 21:43:44;;;;;;;10.53;4.62;;;;;;;19.84;100.00;100954.64;5063403;56;1140838;-81
2023/06/23 21:48:54;;;;;;;5.72;3.58;;;;;;;19.76;100.00;100963.17;5141534;56;1142819;-77
2023/06/23 21:53:58;;;;;;;9.83;3.33;;;;;;;19.59;100.00;100968.53;5119710;56;1141018;-77
2023/06/23 21:59:04;;;;;;;4.10;3.50;;;;;;;19.53;100.00;100963.85;5106099;55;1141207;-80
2023/06/23 22:04:10;;;;;;;4.08;3.40;;;;;;;19.41;100.00;100974.51;5056846;55;1141205;-78
2023/06/23 22:09:15;;;;;;;4.95;3.33;;;;;;;19.37;100.00;100986.59;5022657;56;1141153;-78
2023/06/23 22:14:21;;;;;;;4.37;3.42;;;;;;;19.44;100.00;100992.95;5005592;56;1141222;-82
2023/06/23 22:19:28;;;;;;;4.74;3.70;;;;;;;19.46;100.00;100996.32;4993956;57;1141049;-78
2023/06/23 22:24:34;;;;;;;4.70;3.85;;;;;;;19.52;100.00;100994.37;4995530;57;1140830;-83
2023/06/23 22:29:39;;;;;;;5.65;3.90;;;;;;;19.49;100.00;101002.73;4941114;57;1140787;-75
2023/06/23 22:34:45;;;;;;;5.17;3.70;;;;;;;19.40;100.00;101013.06;4941234;57;1140941;-74
2023/06/23 22:39:51;;;;;;;5.15;4.17;;;;;;;19.26;100.00;101019.91;4959819;57;1141024;-72
2023/06/23 22:44:56;;;;;;;6.40;4.17;;;;;;;19.12;100.00;101018.34;4940922;57;1141026;-74
2023/06/23 22:50:04;;;;;;;6.35;4.37;;;;;;;18.95;100.00;101022.80;4941447;57;1140966;-77